Time;durP1;ratioP1;P1;durP2;ratioP2;P2;SDS_P1;SDS_P2;PMS_P1;PMS_P2;Temp;Humidity;BMP_temperature;BMP_pressure;BME280_temperature;BME280_humidity;BME280_pressure;Samples;Min_cycle;Max_cycle;Signal;HPM_P1;HPM_P2
2022/08/17 00:00:05;;;;;;;5.65;3.10;;;17.40;60.50;;;;;;5049923;28;20245;-37
2022/08/17 00:02:36;;;;;;;4.53;2.58;;;17.40;60.50;;;;;;5031557;28;20203;-36
2022/08/17 00:05:07;;;;;;;5.90;3.05;;;17.40;60.60;;;;;;5030132;28;20235;-37
2022/08/17 00:07:37;;;;;;;6.18;2.50;;;17.40;60.70;;;;;;5030803;28;20315;-36
2022/08/17 00:10:09;;;;;;;3.58;2.90;;;17.50;60.70;;;;;;5030041;28;20203;-36
2022/08/17 00:12:45;;;;;;;5.03;3.03;;;17.50;60.60;;;;;;5030035;28;20929;-39
2022/08/17 00:15:16;;;;;;;3.40;2.40;;;17.50;60.50;;;;;;5030019;28;20204;-36
2022/08/17 00:17:49;;;;;;;3.58;2.80;;;17.50;60.50;;;;;;5030653;28;20211;-37
2022/08/17 00:20:20;;;;;;;3.80;2.80;;;17.50;60.40;;;;;;5030594;28;20576;-37
2022/08/17 00:22:51;;;;;;;4.78;2.90;;;17.50;60.50;;;;;;5035420;28;20671;-36
2022/08/17 00:25:22;;;;;;;5.05;2.25;;;17.60;60.60;;;;;;5049446;28;20227;-36
2022/08/17 00:27:54;;;;;;;4.30;2.53;;;17.60;60.60;;;;;;5029624;28;20239;-37
2022/08/17 00:30:25;;;;;;;4.35;2.58;;;17.70;60.60;;;;;;5033872;28;20210;-36
2022/08/17 00:32:56;;;;;;;3.95;2.55;;;17.60;60.60;;;;;;5029704;28;20207;-37
2022/08/17 00:35:28;;;;;;;5.53;3.55;;;17.70;60.70;;;;;;5030662;28;20235;-36
2022/08/17 00:37:59;;;;;;;3.20;2.58;;;17.70;60.70;;;;;;5029983;28;20266;-36
2022/08/17 00:40:30;;;;;;;5.10;3.15;;;17.70;60.70;;;;;;5031030;28;20192;-37
2022/08/17 00:43:13;;;;;;;4.55;2.67;;;17.80;60.70;;;;;;5046140;28;20195;-36
2022/08/17 00:45:44;;;;;;;5.32;2.95;;;17.80;60.60;;;;;;5050129;28;20231;-36
2022/08/17 00:48:15;;;;;;;5.25;3.35;;;17.80;60.50;;;;;;5049818;28;20709;-36
2022/08/17 00:50:55;;;;;;;4.60;2.80;;;17.80;60.40;;;;;;5049537;28;20200;-41
2022/08/17 00:53:27;;;;;;;4.00;2.90;;;17.90;60.60;;;;;;5049497;28;20195;-36
2022/08/17 00:55:58;;;;;;;4.72;2.40;;;17.90;60.80;;;;;;5048878;28;20234;-36
2022/08/17 00:58:34;;;;;;;4.97;2.75;;;17.90;60.70;;;;;;5050426;28;20222;-37
2022/08/17 01:01:05;;;;;;;4.20;2.47;;;17.90;60.60;;;;;;5045127;28;20223;-37
2022/08/17 01:03:36;;;;;;;4.93;2.33;;;18.00;60.60;;;;;;5029529;28;20578;-36
2022/08/17 01:06:10;;;;;;;4.85;2.60;;;18.00;60.60;;;;;;5029688;28;20220;-41
2022/08/17 01:08:42;;;;;;;6.30;2.33;;;18.00;60.60;;;;;;5029772;28;20200;-36
2022/08/17 01:11:12;;;;;;;4.07;2.50;;;18.00;60.70;;;;;;5030679;28;20192;-39
2022/08/17 01:13:46;;;;;;;4.07;2.30;;;18.00;60.60;;;;;;5034294;28;20200;-36
2022/08/17 01:16:22;;;;;;;3.03;2.25;;;18.10;60.70;;;;;;5033636;28;20212;-37
2022/08/17 01:18:54;;;;;;;5.78;2.95;;;18.10;60.50;;;;;;5034370;28;20207;-36
2022/08/17 01:21:34;;;;;;;4.78;2.70;;;18.10;60.50;;;;;;5037196;28;20575;-39
2022/08/17 01:24:07;;;;;;;4.97;2.28;;;18.10;60.70;;;;;;5033912;28;20675;-38
2022/08/17 01:26:41;;;;;;;5.97;2.67;;;18.20;60.70;;;;;;5033412;28;20574;-39
2022/08/17 01:29:13;;;;;;;5.78;2.55;;;18.20;60.60;;;;;;5034036;28;20212;-36
2022/08/17 01:31:46;;;;;;;5.22;2.92;;;18.20;60.50;;;;;;5039460;28;20207;-36
2022/08/17 01:34:19;;;;;;;5.50;3.08;;;18.20;60.60;;;;;;5033592;28;20207;-36
2022/08/17 01:36:51;;;;;;;5.90;2.80;;;18.20;60.60;;;;;;5034226;28;20212;-36
2022/08/17 01:39:28;;;;;;;5.93;2.85;;;18.30;60.60;;;;;;5033321;28;20215;-37
2022/08/17 01:42:06;;;;;;;5.72;2.72;;;18.30;60.70;;;;;;5042579;28;20274;-37
2022/08/17 01:44:37;;;;;;;5.20;2.60;;;18.30;60.70;;;;;;5053352;28;20195;-36
2022/08/17 01:47:08;;;;;;;4.35;2.60;;;18.30;60.60;;;;;;5053587;28;20227;-37
2022/08/17 01:49:39;;;;;;;7.65;3.25;;;18.30;60.60;;;;;;5052979;28;20227;-37
2022/08/17 01:52:12;;;;;;;6.85;3.00;;;18.40;60.60;;;;;;5052870;28;20229;-37
2022/08/17 01:54:48;;;;;;;4.85;2.63;;;18.40;60.60;;;;;;5053005;28;20613;-39
2022/08/17 01:57:18;;;;;;;3.53;2.70;;;18.40;60.50;;;;;;5052166;28;20227;-37
2022/08/17 01:59:49;;;;;;;4.97;2.55;;;18.40;60.50;;;;;;5053347;28;20192;-37
2022/08/17 02:02:20;;;;;;;5.25;2.75;;;18.40;60.50;;;;;;5042239;28;20223;-37
2022/08/17 02:04:50;;;;;;;5.10;2.55;;;18.50;60.60;;;;;;5032354;28;20203;-44
2022/08/17 02:07:21;;;;;;;6.47;2.67;;;18.50;60.50;;;;;;5044214;28;20223;-38
2022/08/17 02:09:54;;;;;;;4.32;2.58;;;18.50;60.50;;;;;;5053238;28;20772;-37
2022/08/17 02:12:25;;;;;;;4.07;2.40;;;18.50;60.60;;;;;;5053269;28;20192;-41
2022/08/17 02:14:55;;;;;;;4.20;2.65;;;18.50;60.60;;;;;;5053417;28;20192;-37
2022/08/17 02:17:26;;;;;;;5.53;2.95;;;18.50;60.60;;;;;;5041823;28;20224;-37
2022/08/17 02:19:57;;;;;;;3.95;2.47;;;18.60;60.60;;;;;;5033421;28;20560;-47
2022/08/17 02:22:28;;;;;;;4.95;2.45;;;18.60;60.50;;;;;;5044438;28;20298;-37
2022/08/17 02:25:02;;;;;;;5.38;2.70;;;18.60;60.50;;;;;;5053062;28;20200;-37
2022/08/17 02:27:33;;;;;;;4.07;2.63;;;18.70;60.60;;;;;;5052473;28;20666;-37
2022/08/17 02:30:05;;;;;;;5.53;2.80;;;18.70;60.50;;;;;;5052954;28;20199;-36
2022/08/17 02:32:35;;;;;;;5.88;2.85;;;18.70;60.50;;;;;;5053028;28;20204;-37
2022/08/17 02:35:08;;;;;;;4.78;2.58;;;18.80;60.80;;;;;;5050531;28;20192;-37
2022/08/17 02:37:40;;;;;;;4.82;2.33;;;18.80;60.90;;;;;;5048348;28;20254;-37
2022/08/17 02:40:14;;;;;;;4.93;2.40;;;18.80;60.80;;;;;;5033308;28;20603;-40
2022/08/17 02:42:45;;;;;;;6.45;2.70;;;18.80;60.80;;;;;;5033218;28;20659;-39
2022/08/17 02:45:18;;;;;;;4.97;2.70;;;18.80;61.00;;;;;;5034946;28;20208;-41
2022/08/17 02:47:49;;;;;;;5.13;2.67;;;18.90;61.00;;;;;;5032403;28;20216;-37
2022/08/17 02:50:22;;;;;;;4.93;2.50;;;18.90;60.80;;;;;;5032216;28;20196;-37
2022/08/17 02:52:54;;;;;;;4.90;2.22;;;19.00;60.80;;;;;;5033601;28;20196;-40
2022/08/17 02:55:29;;;;;;;4.60;2.42;;;19.00;60.80;;;;;;5052589;28;20206;-41
2022/08/17 02:58:00;;;;;;;4.82;2.60;;;19.00;60.70;;;;;;5052010;28;20583;-37
2022/08/17 03:00:34;;;;;;;4.13;2.20;;;19.00;60.70;;;;;;5045834;28;20282;-37
2022/08/17 03:03:06;;;;;;;6.68;3.00;;;19.10;60.70;;;;;;5047848;28;20242;-37
2022/08/17 03:05:38;;;;;;;5.35;2.70;;;19.10;60.70;;;;;;5039020;28;20800;-36
2022/08/17 03:08:10;;;;;;;4.95;2.33;;;19.10;60.70;;;;;;5051188;28;20230;-37
2022/08/17 03:10:42;;;;;;;4.75;2.22;;;19.10;60.70;;;;;;5051713;28;20187;-37
2022/08/17 03:13:14;;;;;;;4.25;2.47;;;19.20;60.70;;;;;;5052174;28;20199;-41
2022/08/17 03:15:48;;;;;;;4.45;2.50;;;19.20;61.50;;;;;;5051139;28;20196;-41
2022/08/17 03:18:22;;;;;;;4.90;2.40;;;19.20;60.60;;;;;;5041202;28;20206;-37
2022/08/17 03:20:53;;;;;;;4.07;2.35;;;19.30;60.70;;;;;;5030864;28;20207;-36
2022/08/17 03:23:23;;;;;;;4.28;2.08;;;19.20;60.60;;;;;;5047159;28;20645;-37
2022/08/17 03:25:57;;;;;;;4.53;2.38;;;19.20;60.50;;;;;;5050448;28;20215;-37
2022/08/17 03:28:29;;;;;;;4.75;2.50;;;19.30;60.60;;;;;;5051054;28;20226;-37
2022/08/17 03:30:59;;;;;;;6.32;2.63;;;19.30;60.70;;;;;;5049688;28;20230;-40
2022/08/17 03:33:30;;;;;;;3.55;2.50;;;19.30;60.70;;;;;;5040265;28;20584;-37
2022/08/17 03:36:01;;;;;;;4.55;2.33;;;19.30;60.70;;;;;;5031004;28;20565;-37
2022/08/17 03:38:32;;;;;;;4.63;2.70;;;19.30;60.60;;;;;;5046376;28;20211;-40
2022/08/17 03:41:06;;;;;;;6.72;3.20;;;19.40;60.70;;;;;;5051203;28;20196;-37
2022/08/17 03:43:37;;;;;;;5.00;2.70;;;19.40;60.70;;;;;;5050861;28;20266;-37
2022/08/17 03:57:17;;;;;;;4.22;2.40;;;19.50;60.60;;;;;;5050560;28;20217;-39
2022/08/17 03:59:48;;;;;;;4.45;2.30;;;19.50;60.70;;;;;;5049832;28;20194;-37
2022/08/17 04:02:23;;;;;;;8.05;2.80;;;19.50;60.70;;;;;;5050907;28;20585;-38
2022/08/17 04:04:53;;;;;;;7.32;3.00;;;19.50;60.70;;;;;;5043377;28;20209;-38
2022/08/17 04:07:28;;;;;;;6.28;2.97;;;19.50;60.70;;;;;;5031156;28;20235;-38
2022/08/17 04:09:59;;;;;;;5.03;2.60;;;19.50;60.70;;;;;;5030206;28;20226;-36
2022/08/17 04:12:46;;;;;;;6.50;2.90;;;19.60;60.70;;;;;;5030541;28;20223;-40
2022/08/17 04:15:17;;;;;;;4.30;2.45;;;19.50;60.60;;;;;;5030445;28;20184;-37
2022/08/17 04:17:48;;;;;;;3.78;2.17;;;19.50;60.60;;;;;;5030201;28;20224;-36
2022/08/17 04:20:21;;;;;;;5.88;2.60;;;19.50;60.60;;;;;;5039038;28;20203;-37
2022/08/17 04:23:03;;;;;;;3.95;2.42;;;19.60;60.60;;;;;;5050748;28;20199;-37
2022/08/17 04:25:36;;;;;;;6.30;2.80;;;19.60;60.70;;;;;;5049938;28;20778;-37
2022/08/17 04:28:09;;;;;;;4.35;2.38;;;19.60;60.70;;;;;;5049054;28;20223;-37
2022/08/17 04:30:40;;;;;;;4.35;2.67;;;19.60;60.70;;;;;;5049296;28;20199;-37
2022/08/17 04:33:13;;;;;;;4.65;2.53;;;19.60;60.70;;;;;;5049487;28;20196;-37
2022/08/17 04:35:46;;;;;;;5.85;3.20;;;19.60;60.70;;;;;;5048228;28;20187;-37
2022/08/17 04:38:19;;;;;;;5.93;2.53;;;19.60;60.70;;;;;;5050455;28;20211;-36
2022/08/17 04:43:39;;;;;;;5.57;2.70;;;19.60;60.80;;;;;;5050075;28;20589;-37
2022/08/17 04:46:12;;;;;;;4.30;2.50;;;19.60;60.70;;;;;;5049787;28;20188;-37
2022/08/17 04:48:44;;;;;;;5.50;2.63;;;19.60;60.70;;;;;;5037500;28;20549;-37
2022/08/17 04:51:17;;;;;;;4.95;2.63;;;19.60;60.70;;;;;;5029208;28;20684;-37
2022/08/17 04:53:52;;;;;;;6.82;3.10;;;19.60;60.70;;;;;;5032309;28;20204;-36
2022/08/17 04:56:23;;;;;;;6.82;3.08;;;19.60;60.70;;;;;;5049408;28;20215;-37
2022/08/17 04:59:03;;;;;;;4.15;2.25;;;19.60;60.70;;;;;;5050460;28;20206;-40
2022/08/17 05:01:36;;;;;;;5.82;2.53;;;19.60;60.90;;;;;;5048942;28;20212;-37
2022/08/17 05:04:09;;;;;;;4.88;2.47;;;19.60;60.80;;;;;;5049077;28;20564;-37
2022/08/17 05:06:40;;;;;;;5.20;2.65;;;19.60;60.80;;;;;;5035349;28;20246;-36
2022/08/17 05:09:10;;;;;;;5.63;2.83;;;19.60;60.80;;;;;;5048753;28;20225;-37
2022/08/17 05:11:41;;;;;;;4.65;2.72;;;19.60;61.00;;;;;;5031233;28;20231;-37
2022/08/17 05:14:14;;;;;;;5.28;2.85;;;19.60;60.00;;;;;;5029499;28;20200;-37
2022/08/17 05:16:48;;;;;;;4.57;2.58;;;19.60;60.80;;;;;;5029527;28;20255;-37
2022/08/17 05:19:18;;;;;;;6.82;3.25;;;19.60;60.80;;;;;;5030033;28;20196;-40
2022/08/17 05:21:50;;;;;;;6.40;2.67;;;19.60;60.90;;;;;;5045255;28;20204;-36
2022/08/17 05:24:21;;;;;;;4.97;2.60;;;19.60;61.00;;;;;;5050167;28;20191;-41
2022/08/17 05:26:52;;;;;;;6.28;2.63;;;19.60;61.00;;;;;;5049501;28;20222;-36
2022/08/17 05:29:24;;;;;;;6.35;3.03;;;19.60;61.00;;;;;;5049197;28;20199;-37
2022/08/17 05:31:55;;;;;;;6.22;2.78;;;19.60;61.00;;;;;;5049217;28;20199;-37
2022/08/17 05:34:26;;;;;;;6.35;2.80;;;19.60;60.90;;;;;;5049239;28;20191;-41
2022/08/17 05:36:56;;;;;;;5.35;2.83;;;19.60;60.90;;;;;;5031214;28;20579;-37
2022/08/17 05:39:27;;;;;;;6.65;2.85;;;19.60;61.00;;;;;;5029365;28;20196;-45
2022/08/17 05:41:58;;;;;;;5.57;2.72;;;19.50;60.90;;;;;;5028986;28;20922;-42
2022/08/17 05:44:30;;;;;;;7.05;2.90;;;19.60;61.00;;;;;;5030286;28;20203;-43
2022/08/17 05:47:03;;;;;;;5.18;2.92;;;19.50;61.00;;;;;;5029078;28;20227;-47
2022/08/17 05:49:33;;;;;;;4.88;2.67;;;19.60;61.00;;;;;;5029182;28;20853;-43
2022/08/17 05:52:22;;;;;;;5.05;2.65;;;19.50;60.90;;;;;;5037712;28;20192;-37
2022/08/17 05:55:05;;;;;;;6.18;2.60;;;19.60;61.00;;;;;;5048047;28;20200;-38
2022/08/17 05:58:01;;;;;;;4.78;3.03;;;19.50;60.90;;;;;;5031234;28;20703;-38
2022/08/17 06:00:39;;;;;;;6.90;3.00;;;19.50;60.80;;;;;;5038001;28;20195;-39
2022/08/17 06:03:34;;;;;;;6.05;2.67;;;19.50;60.80;;;;;;5052150;28;20593;-39
2022/08/17 06:06:22;;;;;;;6.00;3.05;;;19.50;60.90;;;;;;5042182;28;20222;-49
2022/08/17 06:08:58;;;;;;;5.50;2.72;;;19.50;60.80;;;;;;5032719;28;20195;-41
2022/08/17 06:11:37;;;;;;;4.63;2.90;;;19.50;60.80;;;;;;5033294;28;20195;-36
2022/08/17 06:14:24;;;;;;;5.22;3.20;;;19.50;60.90;;;;;;5033442;28;20196;-38
2022/08/17 06:17:02;;;;;;;5.00;2.75;;;19.50;60.90;;;;;;5032240;28;20223;-41
2022/08/17 06:19:40;;;;;;;4.80;2.60;;;19.50;60.90;;;;;;5039260;28;20196;-38
2022/08/17 06:22:12;;;;;;;6.35;2.95;;;19.50;60.90;;;;;;5052970;28;20202;-37
2022/08/17 06:24:48;;;;;;;4.95;2.70;;;19.40;60.70;;;;;;5052106;28;20202;-45
2022/08/17 06:27:26;;;;;;;4.68;2.90;;;19.50;60.90;;;;;;5052225;28;20285;-37
2022/08/17 06:30:04;;;;;;;6.63;2.97;;;19.40;60.80;;;;;;5052330;28;20750;-40
2022/08/17 06:32:38;;;;;;;5.45;2.97;;;19.40;60.80;;;;;;5032671;28;20200;-36
2022/08/17 06:35:10;;;;;;;4.78;2.97;;;19.40;60.80;;;;;;5032624;28;20196;-37
2022/08/17 06:37:52;;;;;;;6.32;3.42;;;19.40;60.80;;;;;;5032732;28;20708;-37
2022/08/17 06:40:51;;;;;;;6.10;3.20;;;19.50;61.00;;;;;;5032081;28;20195;-38
2022/08/17 06:43:32;;;;;;;6.38;3.28;;;19.50;60.90;;;;;;5034424;28;20555;-40
2022/08/17 06:46:10;;;;;;;4.57;3.13;;;19.40;60.80;;;;;;5031973;28;20196;-39
2022/08/17 06:48:47;;;;;;;4.88;3.20;;;19.40;60.80;;;;;;5032640;28;20224;-38
2022/08/17 06:51:34;;;;;;;5.38;3.10;;;19.40;60.80;;;;;;5032730;28;20187;-37
2022/08/17 06:54:09;;;;;;;4.43;2.95;;;19.40;60.80;;;;;;5036351;28;20613;-37
2022/08/17 06:56:46;;;;;;;5.65;3.28;;;19.40;60.90;;;;;;5052128;28;20215;-37
2022/08/17 06:59:21;;;;;;;6.22;3.15;;;19.40;60.90;;;;;;5050796;28;20300;-40
2022/08/17 07:01:55;;;;;;;4.43;2.90;;;19.40;60.90;;;;;;5051898;28;20268;-37
2022/08/17 07:04:31;;;;;;;6.13;2.88;;;19.40;60.90;;;;;;5048785;28;20206;-36
2022/08/17 07:08:00;;;;;;;6.35;3.40;;;19.40;60.90;;;;;;5031665;28;20702;-37
2022/08/17 07:10:00;;;;;;;5.65;3.38;;;19.30;60.80;;;;;;5031243;28;20215;-37
2022/08/17 07:12:37;;;;;;;5.78;3.10;;;19.30;60.80;;;;;;5037177;28;20192;-45
2022/08/17 07:15:15;;;;;;;5.65;3.25;;;19.40;60.90;;;;;;5051140;28;20195;-37
2022/08/17 07:17:47;;;;;;;5.35;2.83;;;19.30;60.80;;;;;;5051344;28;20218;-38
2022/08/17 07:20:23;;;;;;;3.97;2.80;;;19.30;60.90;;;;;;5051690;28;20610;-49
2022/08/17 07:23:02;;;;;;;4.13;2.90;;;19.30;60.80;;;;;;5051474;28;20563;-46
2022/08/17 07:25:33;;;;;;;4.20;3.08;;;19.30;60.80;;;;;;5051451;28;20198;-37
2022/08/17 07:28:07;;;;;;;5.60;3.05;;;19.30;60.80;;;;;;5051164;28;20281;-37
2022/08/17 07:30:42;;;;;;;6.55;3.25;;;19.30;60.80;;;;;;5051123;28;20214;-37
2022/08/17 07:33:18;;;;;;;4.45;2.80;;;19.30;60.80;;;;;;5050786;28;20278;-39
2022/08/17 07:35:52;;;;;;;4.82;3.05;;;19.30;60.80;;;;;;5052141;28;20202;-39
2022/08/17 07:38:27;;;;;;;4.53;2.72;;;19.30;60.80;;;;;;5051731;28;20206;-40
2022/08/17 07:41:06;;;;;;;4.43;2.90;;;19.30;60.80;;;;;;5051504;28;20194;-40
2022/08/17 07:43:39;;;;;;;4.93;2.88;;;19.20;60.80;;;;;;5051743;28;20286;-37
2022/08/17 07:49:20;;;;;;;5.15;2.70;;;19.20;60.80;;;;;;5050779;28;20280;-41
2022/08/17 07:52:06;;;;;;;4.38;2.97;;;19.20;61.60;;;;;;5050852;28;20224;-37
2022/08/17 07:54:38;;;;;;;4.25;2.83;;;19.20;60.80;;;;;;5051203;28;20294;-46
2022/08/17 07:57:30;;;;;;;5.45;3.17;;;19.20;60.80;;;;;;5051334;28;20298;-40
2022/08/17 08:00:22;;;;;;;5.78;2.95;;;19.20;60.90;;;;;;5051495;28;20196;-37
2022/08/17 08:03:06;;;;;;;3.90;2.78;;;19.20;60.80;;;;;;5051745;28;20535;-37
2022/08/17 08:05:48;;;;;;;5.18;3.08;;;19.20;60.80;;;;;;5071456;28;20202;-37
2022/08/17 08:08:29;;;;;;;5.55;3.10;;;19.20;60.80;;;;;;5071001;28;20222;-37
2022/08/17 08:11:10;;;;;;;5.25;3.30;;;19.10;60.90;;;;;;5070663;28;20203;-37
2022/08/17 08:13:42;;;;;;;5.28;3.10;;;19.20;61.70;;;;;;5071369;28;20217;-39
2022/08/17 08:16:24;;;;;;;5.10;3.30;;;19.10;60.90;;;;;;5070974;28;20285;-36
2022/08/17 08:18:57;;;;;;;5.90;3.15;;;19.10;60.90;;;;;;5070136;28;20683;-36
2022/08/17 08:21:52;;;;;;;7.30;3.10;;;19.10;60.90;;;;;;5059123;28;20198;-44
2022/08/17 08:24:45;;;;;;;5.00;3.08;;;19.10;60.90;;;;;;5051254;28;20241;-37
2022/08/17 08:27:28;;;;;;;5.85;3.17;;;19.10;60.90;;;;;;5050586;28;20223;-37
2022/08/17 08:30:04;;;;;;;4.45;2.88;;;19.10;61.00;;;;;;5050466;28;20200;-38
2022/08/17 08:32:48;;;;;;;4.07;2.85;;;19.10;60.90;;;;;;5030637;28;20249;-37
2022/08/17 08:35:30;;;;;;;5.18;3.20;;;19.00;60.80;;;;;;5069327;28;20199;-37
2022/08/17 08:38:09;;;;;;;3.92;2.90;;;19.10;60.90;;;;;;5069829;28;20287;-36
2022/08/17 08:41:06;;;;;;;5.40;2.83;;;19.10;60.90;;;;;;5069492;28;20549;-37
2022/08/17 08:43:45;;;;;;;5.13;3.17;;;19.00;60.80;;;;;;5070149;28;20199;-37
2022/08/17 08:46:24;;;;;;;5.57;3.20;;;19.00;60.80;;;;;;5070210;28;20215;-37
2022/08/17 08:49:22;;;;;;;4.57;3.00;;;19.00;60.80;;;;;;5044739;28;20256;-40
2022/08/17 08:51:56;;;;;;;3.67;3.08;;;19.00;60.90;;;;;;5040739;28;20277;-37
2022/08/17 08:54:37;;;;;;;5.63;2.92;;;19.00;60.80;;;;;;5050578;28;20191;-37
2022/08/17 08:57:18;;;;;;;4.70;3.20;;;19.00;60.80;;;;;;5050600;28;20219;-40
2022/08/17 09:00:08;;;;;;;4.43;3.08;;;18.90;60.80;;;;;;5050204;28;20268;-38
2022/08/17 09:03:17;;;;;;;3.95;3.28;;;18.90;60.80;;;;;;5049209;28;20230;-37
2022/08/17 09:06:09;;;;;;;3.90;2.95;;;18.90;60.80;;;;;;5021451;28;20687;-37
2022/08/17 09:08:54;;;;;;;5.20;3.10;;;18.90;60.80;;;;;;5029611;28;20232;-37
2022/08/17 09:11:34;;;;;;;5.30;3.08;;;18.90;60.80;;;;;;5029875;28;20703;-42
2022/08/17 09:14:12;;;;;;;4.85;3.08;;;18.90;60.80;;;;;;5030038;28;20199;-36
2022/08/17 09:16:46;;;;;;;5.13;2.75;;;18.90;60.80;;;;;;5030110;28;20226;-36
2022/08/17 09:19:22;;;;;;;6.68;3.42;;;18.90;60.80;;;;;;5047069;28;20283;-36
2022/08/17 09:21:56;;;;;;;4.97;3.47;;;18.90;60.90;;;;;;5070311;28;20194;-36
2022/08/17 09:24:34;;;;;;;4.45;2.92;;;18.80;60.90;;;;;;5070211;28;20568;-37
2022/08/17 09:27:09;;;;;;;3.95;3.03;;;18.80;60.80;;;;;;5069918;28;20591;-44
2022/08/17 09:29:49;;;;;;;4.40;2.70;;;18.80;60.80;;;;;;5069942;28;20300;-36
2022/08/17 09:32:22;;;;;;;3.15;2.65;;;18.80;60.80;;;;;;5051687;28;20202;-37
2022/08/17 09:34:55;;;;;;;4.38;2.85;;;18.80;60.90;;;;;;5065571;28;20654;-39
2022/08/17 09:37:30;;;;;;;4.00;3.03;;;18.80;60.90;;;;;;5065006;28;20212;-38
2022/08/17 09:40:12;;;;;;;4.63;2.83;;;18.80;60.80;;;;;;5051696;28;20199;-37
2022/08/17 09:42:50;;;;;;;4.57;2.92;;;18.80;60.80;;;;;;5047995;28;20551;-36
2022/08/17 09:45:32;;;;;;;3.00;2.67;;;18.80;60.90;;;;;;5050787;28;20198;-37
2022/08/17 09:48:07;;;;;;;5.35;2.92;;;18.80;60.90;;;;;;5053043;28;20220;-41
2022/08/17 09:50:42;;;;;;;4.90;3.47;;;18.80;60.80;;;;;;5053430;28;20195;-36
2022/08/17 09:53:13;;;;;;;4.07;2.78;;;18.80;60.80;;;;;;5053428;28;20188;-36
2022/08/17 09:55:59;;;;;;;3.63;2.90;;;18.80;60.90;;;;;;5051176;28;20211;-47
2022/08/17 09:58:41;;;;;;;4.38;2.83;;;18.70;60.70;;;;;;5033200;28;20203;-37
2022/08/17 10:01:24;;;;;;;3.13;2.25;;;18.70;60.80;;;;;;5042531;28;20195;-37
2022/08/17 10:04:18;;;;;;;3.85;3.00;;;18.70;60.80;;;;;;5038477;28;20188;-40
2022/08/17 10:06:58;;;;;;;4.28;2.80;;;18.70;60.80;;;;;;5032711;28;20254;-36
2022/08/17 10:09:47;;;;;;;4.70;3.17;;;18.70;60.80;;;;;;5033085;28;20273;-37
2022/08/17 10:12:28;;;;;;;3.63;2.72;;;18.70;60.70;;;;;;5032656;28;20200;-37
2022/08/17 10:15:24;;;;;;;4.07;3.17;;;18.70;60.70;;;;;;5031455;28;20199;-36
2022/08/17 10:18:22;;;;;;;4.53;3.05;;;18.70;60.80;;;;;;5051451;28;20235;-36
2022/08/17 10:26:41;;;;;;;4.75;3.15;;;18.60;60.70;;;;;;5052236;28;20296;-36
2022/08/17 10:29:18;;;;;;;3.83;2.83;;;18.60;60.70;;;;;;5051860;28;20623;-37
2022/08/17 10:31:53;;;;;;;3.95;2.78;;;18.60;60.80;;;;;;5051618;28;20199;-37
2022/08/17 10:34:50;;;;;;;4.20;2.80;;;18.60;60.80;;;;;;5052243;28;20199;-40
2022/08/17 10:37:45;;;;;;;3.97;2.50;;;18.50;60.70;;;;;;5051706;28;20223;-39
2022/08/17 10:40:33;;;;;;;5.13;2.60;;;18.60;60.80;;;;;;5051990;28;20207;-37
2022/08/17 10:43:18;;;;;;;4.38;2.40;;;18.60;60.80;;;;;;5051346;28;20191;-37
2022/08/17 10:45:54;;;;;;;4.65;3.00;;;18.50;60.70;;;;;;5053058;28;20665;-37
2022/08/17 10:48:32;;;;;;;4.50;2.60;;;18.60;60.70;;;;;;5050836;28;20687;-36
2022/08/17 10:51:08;;;;;;;3.60;2.92;;;18.50;60.70;;;;;;5050780;28;20192;-40
2022/08/17 10:53:57;;;;;;;4.22;2.90;;;18.50;60.70;;;;;;5051625;28;20249;-37
2022/08/17 10:56:46;;;;;;;4.50;2.90;;;18.50;60.70;;;;;;5051526;28;20306;-40
2022/08/17 10:59:51;;;;;;;4.82;2.80;;;18.50;60.70;;;;;;5051756;28;20195;-39
2022/08/17 11:02:32;;;;;;;4.47;2.83;;;18.50;60.80;;;;;;5050888;28;20678;-47
2022/08/17 11:05:28;;;;;;;4.20;3.03;;;18.50;60.70;;;;;;5037658;28;20197;-38
2022/08/17 11:08:27;;;;;;;4.53;2.65;;;18.50;60.80;;;;;;5050903;28;20794;-36
2022/08/17 11:11:11;;;;;;;3.55;2.50;;;18.50;60.70;;;;;;5052153;28;20274;-37
2022/08/17 11:13:50;;;;;;;3.72;2.55;;;18.50;60.70;;;;;;5051112;28;20670;-45
2022/08/17 11:16:44;;;;;;;4.03;2.72;;;18.50;60.70;;;;;;5051434;28;20702;-36
2022/08/17 11:19:41;;;;;;;3.58;2.75;;;18.40;60.70;;;;;;5051233;28;20192;-43
2022/08/17 11:22:41;;;;;;;3.42;2.65;;;18.40;60.70;;;;;;5051744;28;20206;-42
2022/08/17 11:25:17;;;;;;;3.33;2.80;;;18.40;60.70;;;;;;5051210;28;20206;-41
2022/08/17 11:27:52;;;;;;;4.80;3.28;;;18.30;60.70;;;;;;5051299;28;20215;-40
2022/08/17 11:30:46;;;;;;;3.90;3.00;;;18.40;60.70;;;;;;5050954;28;20378;-39
2022/08/17 11:33:58;;;;;;;5.00;2.85;;;18.40;60.70;;;;;;5050085;28;20191;-45
2022/08/17 11:36:55;;;;;;;4.00;2.80;;;18.40;60.70;;;;;;5051627;28;20219;-40
2022/08/17 11:39:45;;;;;;;4.00;2.60;;;18.30;60.60;;;;;;5043816;28;20670;-36
2022/08/17 11:42:33;;;;;;;3.85;2.70;;;18.30;60.60;;;;;;5048931;28;20203;-37
2022/08/17 11:45:12;;;;;;;4.65;2.60;;;18.30;60.60;;;;;;5033171;28;20199;-43
2022/08/17 11:54:10;;;;;;;3.15;2.42;;;18.30;60.60;;;;;;5029537;28;20607;-38
2022/08/17 11:56:47;;;;;;;3.35;2.60;;;18.20;60.70;;;;;;5028957;28;20282;-38
2022/08/17 11:59:53;;;;;;;3.28;2.50;;;18.20;60.60;;;;;;5037600;28;20222;-36
2022/08/17 12:02:47;;;;;;;4.13;2.63;;;18.30;60.70;;;;;;5049026;28;20196;-44
2022/08/17 12:05:32;;;;;;;3.78;2.78;;;18.20;60.70;;;;;;5049025;28;20206;-37
2022/08/17 12:08:17;;;;;;;3.60;2.65;;;18.20;60.70;;;;;;5049312;28;20234;-37
2022/08/17 12:11:00;;;;;;;3.80;2.97;;;18.20;60.70;;;;;;5050076;28;20203;-46
2022/08/17 12:13:33;;;;;;;4.40;2.92;;;18.20;60.70;;;;;;5049576;28;20203;-47
2022/08/17 12:16:04;;;;;;;3.22;2.65;;;18.20;60.70;;;;;;5068790;28;20195;-38
2022/08/17 12:18:40;;;;;;;3.20;2.58;;;18.20;60.70;;;;;;5068859;28;20194;-46
2022/08/17 12:21:25;;;;;;;3.78;2.92;;;18.10;60.70;;;;;;5065148;28;20194;-41
2022/08/17 12:24:05;;;;;;;3.72;2.67;;;18.10;60.70;;;;;;5028838;28;20203;-44
2022/08/17 12:26:37;;;;;;;4.05;2.70;;;18.10;60.70;;;;;;5028595;28;20310;-45
2022/08/17 12:29:14;;;;;;;4.18;2.45;;;18.10;60.70;;;;;;5033910;28;20273;-36
2022/08/17 12:31:47;;;;;;;3.28;2.58;;;18.10;60.70;;;;;;5048274;28;20207;-36
2022/08/17 12:34:22;;;;;;;3.15;2.67;;;18.10;60.70;;;;;;5048538;28;20214;-44
2022/08/17 12:36:58;;;;;;;4.00;2.70;;;18.10;60.70;;;;;;5048595;28;20696;-37
2022/08/17 12:39:30;;;;;;;3.05;2.55;;;18.10;60.70;;;;;;5049015;28;20195;-47
2022/08/17 12:42:03;;;;;;;3.08;2.63;;;18.10;60.70;;;;;;5049020;28;20294;-44
2022/08/17 12:44:35;;;;;;;3.90;3.00;;;18.10;60.70;;;;;;5056683;28;20206;-37
2022/08/17 12:47:13;;;;;;;3.88;2.83;;;18.00;60.50;;;;;;5068838;28;20250;-38
2022/08/17 12:49:47;;;;;;;2.70;2.38;;;18.00;60.60;;;;;;5068109;28;20590;-37
2022/08/17 12:52:22;;;;;;;3.80;2.65;;;18.00;60.60;;;;;;5068144;28;20201;-43
2022/08/17 12:54:57;;;;;;;2.78;2.45;;;18.00;60.60;;;;;;5049202;28;20188;-44
2022/08/17 12:57:32;;;;;;;3.92;2.50;;;18.00;60.60;;;;;;5028395;28;20230;-39
2022/08/17 13:00:10;;;;;;;3.97;2.72;;;18.00;60.60;;;;;;5040121;28;20191;-37
2022/08/17 13:02:47;;;;;;;4.45;2.83;;;18.00;60.60;;;;;;5048594;28;20233;-37
2022/08/17 13:05:26;;;;;;;3.50;2.50;;;17.90;60.60;;;;;;5048703;28;20203;-41
2022/08/17 13:07:58;;;;;;;3.00;2.55;;;18.00;60.70;;;;;;5048240;28;20843;-40
2022/08/17 13:10:31;;;;;;;4.35;2.72;;;17.90;60.60;;;;;;5048342;28;20219;-37
2022/08/17 13:13:04;;;;;;;2.78;2.38;;;18.00;60.60;;;;;;5028649;28;20196;-39
2022/08/17 13:15:40;;;;;;;3.00;2.40;;;18.00;60.60;;;;;;5058662;28;20230;-43
2022/08/17 13:18:37;;;;;;;3.67;2.70;;;17.90;60.60;;;;;;5068288;28;20293;-43
2022/08/17 13:21:29;;;;;;;3.80;2.58;;;17.90;60.60;;;;;;5068664;28;20205;-45
2022/08/17 13:24:04;;;;;;;2.95;2.65;;;17.90;60.50;;;;;;5068760;28;20737;-39
2022/08/17 13:26:39;;;;;;;2.78;2.40;;;17.90;60.60;;;;;;5068752;28;20305;-36
2022/08/17 13:29:22;;;;;;;3.47;2.45;;;17.80;60.50;;;;;;5067088;28;20237;-40
2022/08/17 13:31:54;;;;;;;3.30;2.40;;;17.90;60.60;;;;;;5052449;28;20207;-48
2022/08/17 13:34:40;;;;;;;3.58;2.60;;;17.80;60.60;;;;;;5048526;28;20203;-36
2022/08/17 13:37:33;;;;;;;3.10;2.33;;;17.80;60.60;;;;;;5048221;28;20255;-42
2022/08/17 13:40:21;;;;;;;3.10;2.65;;;17.80;60.60;;;;;;5048063;28;20230;-43
2022/08/17 13:42:54;;;;;;;3.42;2.65;;;17.80;60.60;;;;;;5047807;28;20195;-37
2022/08/17 13:45:53;;;;;;;3.92;2.60;;;17.80;60.60;;;;;;5060606;28;20191;-39
2022/08/17 13:48:30;;;;;;;3.00;2.70;;;17.80;60.60;;;;;;5068055;28;20703;-39
2022/08/17 13:51:27;;;;;;;2.80;2.33;;;17.80;60.50;;;;;;5067753;28;20190;-36
2022/08/17 13:54:21;;;;;;;3.80;2.58;;;17.80;60.60;;;;;;5067505;28;20199;-40
2022/08/17 13:57:02;;;;;;;3.10;2.65;;;17.80;60.60;;;;;;5065909;28;20211;-44
2022/08/17 13:59:41;;;;;;;4.35;2.40;;;17.70;60.60;;;;;;5067585;28;20194;-44
2022/08/17 14:02:13;;;;;;;2.92;2.50;;;17.70;60.60;;;;;;5049483;28;20294;-44
2022/08/17 14:04:45;;;;;;;2.58;2.38;;;17.70;60.70;;;;;;5047577;28;20199;-41
2022/08/17 14:07:32;;;;;;;3.00;2.50;;;17.70;60.70;;;;;;5046970;28;20219;-36
2022/08/17 14:10:09;;;;;;;3.38;2.38;;;17.70;60.70;;;;;;5046689;28;20269;-47